createdAt,value
2019-05-20T00:01:28.993Z,14.79
2019-05-20T00:03:54.837Z,14.58
2019-05-20T00:06:20.683Z,14.51
2019-05-20T00:08:46.559Z,14.53
2019-05-20T00:11:12.451Z,14.34
2019-05-20T00:13:38.275Z,14.33
2019-05-20T00:16:04.168Z,14.44
2019-05-20T00:18:29.984Z,14.67
2019-05-20T00:20:55.844Z,14.75
2019-05-20T00:23:21.714Z,14.70
2019-05-20T00:25:47.584Z,14.76
2019-05-20T00:28:13.424Z,14.67
2019-05-20T00:30:39.308Z,14.50
2019-05-20T00:33:05.139Z,14.55
2019-05-20T00:35:31.003Z,14.20
2019-05-20T00:37:56.859Z,14.20
2019-05-20T00:40:22.766Z,14.24
2019-05-20T00:42:48.697Z,13.96
2019-05-20T00:45:14.656Z,13.87
2019-05-20T00:47:40.531Z,13.89
2019-05-20T00:50:06.874Z,14.14
2019-05-20T00:52:32.749Z,13.90
2019-05-20T00:54:58.707Z,13.96
2019-05-20T00:57:24.576Z,14.13
2019-05-20T00:59:50.388Z,14.31
2019-05-20T01:02:16.276Z,14.20
2019-05-20T01:04:42.123Z,14.29
2019-05-20T01:07:08.042Z,14.26
2019-05-20T01:09:33.906Z,14.47
2019-05-20T01:11:59.742Z,14.32
2019-05-20T01:14:26.090Z,14.33
2019-05-20T01:16:51.974Z,14.24
2019-05-20T01:19:17.926Z,14.15
2019-05-20T01:21:43.747Z,14.23
2019-05-20T01:24:09.646Z,13.94
2019-05-20T01:26:35.484Z,13.97
2019-05-20T01:29:01.440Z,14.05
2019-05-20T01:31:27.305Z,14.15
2019-05-20T01:33:53.166Z,14.01
2019-05-20T01:36:18.994Z,14.19
2019-05-20T01:38:44.865Z,14.08
2019-05-20T01:41:10.690Z,13.99
2019-05-20T01:43:36.586Z,14.11
2019-05-20T01:46:02.537Z,13.65
2019-05-20T01:48:28.433Z,13.77
2019-05-20T01:50:54.270Z,13.88
2019-05-20T01:53:20.109Z,13.92
2019-05-20T01:55:45.983Z,14.01
2019-05-20T01:58:11.837Z,13.82
2019-05-20T02:00:37.690Z,13.89
2019-05-20T02:03:03.562Z,13.74
2019-05-20T02:05:29.416Z,13.53
2019-05-20T02:07:55.248Z,13.53
2019-05-20T02:10:21.113Z,13.57
2019-05-20T02:12:46.960Z,13.52
2019-05-20T02:15:33.359Z,13.55
2019-05-20T02:17:59.218Z,13.45
2019-05-20T02:20:25.187Z,13.45
2019-05-20T02:22:52.955Z,13.53
2019-05-20T02:25:18.811Z,13.45
2019-05-20T02:27:44.686Z,13.52
2019-05-20T02:30:10.851Z,13.65
2019-05-20T02:32:36.702Z,13.72
2019-05-20T02:35:04.774Z,13.95
2019-05-20T02:37:30.613Z,14.05
2019-05-20T02:39:56.470Z,14.33
2019-05-20T02:42:22.347Z,14.50
2019-05-20T02:44:48.216Z,14.56
2019-05-20T02:47:14.071Z,14.63
2019-05-20T02:49:40.048Z,14.65
2019-05-20T02:52:05.915Z,14.61
2019-05-20T02:54:31.760Z,14.63
2019-05-20T02:56:57.649Z,14.69
2019-05-20T02:59:23.493Z,14.69
2019-05-20T03:01:49.350Z,14.73
2019-05-20T03:04:15.226Z,14.71
2019-05-20T03:06:41.155Z,14.70
2019-05-20T03:09:06.978Z,14.71
2019-05-20T03:11:32.811Z,14.74
2019-05-20T03:13:58.677Z,14.73
2019-05-20T03:16:24.531Z,14.77
2019-05-20T03:18:50.377Z,14.76
2019-05-20T03:21:16.303Z,14.81
2019-05-20T03:23:42.284Z,14.70
2019-05-20T03:26:08.088Z,14.77
2019-05-20T03:28:34.453Z,14.74
2019-05-20T03:31:00.312Z,14.90
2019-05-20T03:33:26.162Z,14.74
2019-05-20T03:35:51.982Z,14.70
2019-05-20T03:38:17.823Z,14.72
2019-05-20T03:40:43.669Z,14.81
2019-05-20T03:43:09.530Z,14.82
2019-05-20T03:45:35.380Z,14.88
2019-05-20T03:48:01.217Z,14.84
2019-05-20T03:50:27.033Z,14.81
2019-05-20T03:52:52.896Z,14.88
2019-05-20T03:55:18.848Z,14.93
2019-05-20T03:57:44.685Z,14.96
2019-05-20T04:00:11.372Z,15.01
2019-05-20T04:02:37.349Z,14.99
2019-05-20T04:05:03.921Z,14.98
2019-05-20T04:07:29.732Z,15.05
2019-05-20T04:09:55.600Z,15.05
2019-05-20T04:12:21.420Z,15.13
2019-05-20T04:14:47.263Z,15.19
2019-05-20T04:17:13.149Z,15.26
2019-05-20T04:19:38.963Z,15.33
2019-05-20T04:22:04.872Z,15.40
2019-05-20T04:24:30.719Z,15.54
2019-05-20T04:26:57.819Z,15.62
2019-05-20T04:29:23.759Z,15.76
2019-05-20T04:31:49.718Z,15.77
2019-05-20T04:34:15.628Z,15.77
2019-05-20T04:36:41.459Z,15.78
2019-05-20T04:39:07.308Z,15.85
2019-05-20T04:41:35.597Z,15.91
2019-05-20T04:44:01.191Z,15.87
2019-05-20T04:46:27.151Z,15.90
2019-05-20T04:48:53.011Z,15.99
2019-05-20T04:51:18.874Z,16.03
2019-05-20T04:53:44.742Z,16.12
2019-05-20T04:56:10.587Z,16.28
2019-05-20T04:58:36.433Z,16.28
2019-05-20T05:01:02.302Z,16.27
2019-05-20T05:03:28.232Z,16.32
2019-05-20T05:05:54.371Z,16.28
2019-05-20T05:08:20.609Z,16.35
2019-05-20T05:10:46.549Z,16.46
2019-05-20T05:13:12.520Z,16.43
2019-05-20T05:15:38.360Z,16.36
2019-05-20T05:18:04.309Z,16.40
2019-05-20T05:20:30.233Z,16.38
2019-05-20T05:22:56.198Z,16.36
2019-05-20T05:25:22.130Z,15.86
2019-05-20T05:27:48.069Z,15.74
2019-05-20T05:30:14.032Z,15.77
2019-05-20T05:32:40.393Z,15.90
2019-05-20T05:35:06.346Z,15.80
2019-05-20T05:37:32.185Z,15.78
2019-05-20T05:39:58.047Z,15.84
2019-05-20T05:42:23.870Z,15.85
2019-05-20T05:44:49.720Z,16.13
2019-05-20T05:47:15.540Z,16.05
2019-05-20T05:49:41.375Z,16.28
2019-05-20T05:52:07.235Z,16.48
2019-05-20T05:54:33.066Z,16.70
2019-05-20T05:56:58.934Z,16.72
2019-05-20T05:59:24.836Z,16.89
2019-05-20T06:01:50.712Z,16.51
2019-05-20T06:04:16.573Z,16.47
2019-05-20T06:06:42.413Z,16.47
2019-05-20T06:09:08.300Z,16.30
2019-05-20T06:11:34.139Z,16.49
2019-05-20T06:14:00.030Z,16.40
2019-05-20T06:16:36.094Z,15.83
2019-05-20T06:18:53.625Z,16.10
2019-05-20T06:21:19.471Z,16.03
2019-05-20T06:23:45.345Z,16.06
2019-05-20T06:26:11.184Z,16.39
2019-05-20T06:28:37.046Z,16.46
2019-05-20T06:31:02.883Z,16.32
2019-05-20T06:33:28.804Z,16.38
2019-05-20T06:35:54.965Z,16.48
2019-05-20T06:38:34.971Z,16.54
2019-05-20T06:41:01.453Z,16.61
2019-05-20T06:43:27.290Z,16.77
2019-05-20T06:45:53.175Z,16.87
2019-05-20T06:48:19.018Z,16.92
2019-05-20T06:50:44.859Z,16.99
2019-05-20T06:53:10.714Z,17.02
2019-05-20T06:55:36.650Z,16.80
2019-05-20T06:58:02.698Z,17.11
2019-05-20T07:00:36.656Z,17.35
2019-05-20T07:03:03.711Z,17.55
2019-05-20T07:05:29.539Z,17.66
2019-05-20T07:07:55.411Z,17.68
2019-05-20T07:10:21.338Z,17.22
2019-05-20T07:12:47.178Z,17.22
2019-05-20T07:15:13.159Z,17.23
2019-05-20T07:17:38.972Z,17.38
2019-05-20T07:20:04.941Z,17.51
2019-05-20T07:22:30.836Z,17.49
2019-05-20T07:24:56.639Z,17.52
2019-05-20T07:27:22.518Z,17.54
2019-05-20T07:29:48.391Z,17.55
2019-05-20T07:32:14.303Z,17.35
2019-05-20T07:34:40.141Z,17.31
2019-05-20T07:37:06.009Z,17.42
2019-05-20T07:39:31.952Z,17.47
2019-05-20T07:41:57.909Z,17.44
2019-05-20T07:44:23.740Z,17.28
2019-05-20T07:46:49.912Z,17.36
2019-05-20T07:49:16.052Z,17.43
2019-05-20T07:51:42.118Z,17.36
2019-05-20T07:54:08.371Z,17.32
2019-05-20T07:56:37.598Z,17.46
2019-05-20T07:59:04.559Z,17.44
2019-05-20T08:01:30.511Z,17.47
2019-05-20T08:03:56.366Z,17.36
2019-05-20T08:06:22.440Z,17.35
2019-05-20T08:08:48.351Z,17.42
2019-05-20T08:11:14.279Z,17.20
2019-05-20T08:13:40.268Z,17.28
2019-05-20T08:16:06.083Z,17.28
2019-05-20T08:18:31.928Z,17.32
2019-05-20T08:20:57.865Z,17.08
2019-05-20T08:23:23.759Z,17.06
2019-05-20T08:25:49.610Z,17.07
2019-05-20T08:28:15.447Z,17.11
2019-05-20T08:30:41.291Z,16.96
2019-05-20T08:33:07.303Z,16.92
2019-05-20T08:35:33.302Z,16.91
2019-05-20T08:37:59.207Z,17.01
2019-05-20T08:40:25.056Z,16.89
2019-05-20T08:42:50.873Z,16.96
2019-05-20T08:45:16.974Z,17.01
2019-05-20T08:47:42.821Z,16.89
2019-05-20T08:50:14.228Z,16.83
2019-05-20T08:52:36.852Z,16.82
2019-05-20T08:55:03.622Z,16.88
2019-05-20T08:57:29.457Z,16.88
2019-05-20T08:59:55.316Z,16.77
2019-05-20T09:02:21.165Z,16.82
2019-05-20T09:04:47.038Z,16.89
2019-05-20T09:07:12.885Z,17.09
2019-05-20T09:09:38.863Z,16.83
2019-05-20T09:12:04.791Z,16.94
2019-05-20T09:14:30.649Z,17.03
2019-05-20T09:16:56.501Z,17.09
2019-05-20T09:19:22.348Z,16.81
2019-05-20T09:21:48.219Z,16.79
2019-05-20T09:24:16.429Z,16.48
2019-05-20T09:26:41.984Z,16.49
2019-05-20T09:29:11.270Z,16.55
2019-05-20T09:31:35.578Z,16.57
2019-05-20T09:34:01.503Z,16.46
2019-05-20T09:36:27.329Z,16.62
2019-05-20T09:38:53.186Z,16.58
2019-05-20T09:41:19.032Z,16.90
2019-05-20T09:43:44.963Z,17.10
2019-05-20T09:46:11.130Z,16.91
2019-05-20T09:48:36.996Z,17.04
2019-05-20T09:51:02.856Z,17.21
2019-05-20T09:53:28.727Z,16.93
2019-05-20T09:55:54.574Z,16.96
2019-05-20T09:58:20.444Z,17.39
2019-05-20T10:00:46.304Z,17.86
2019-05-20T10:03:12.123Z,17.68
2019-05-20T10:05:38.124Z,17.30
2019-05-20T10:08:04.017Z,17.51
2019-05-20T10:10:30.562Z,17.58
2019-05-20T10:12:56.540Z,17.57
2019-05-20T10:15:22.706Z,17.55
2019-05-20T10:17:48.564Z,17.61
2019-05-20T10:20:16.040Z,17.73
2019-05-20T10:22:41.877Z,17.48
2019-05-20T10:25:08.342Z,17.71
2019-05-20T10:27:34.180Z,17.77
2019-05-20T10:30:00.141Z,17.88
2019-05-20T10:32:26.000Z,17.89
2019-05-20T10:34:51.821Z,18.08
2019-05-20T10:37:17.865Z,17.83
2019-05-20T10:39:43.710Z,17.95
2019-05-20T10:42:09.546Z,17.81
2019-05-20T10:44:35.425Z,17.57
2019-05-20T10:47:01.295Z,17.56
2019-05-20T10:49:27.124Z,17.86
2019-05-20T10:51:52.992Z,17.55
2019-05-20T10:54:18.827Z,17.69
2019-05-20T10:56:44.666Z,17.48
2019-05-20T10:59:12.066Z,17.36
2019-05-20T11:01:38.278Z,17.54
2019-05-20T11:04:04.657Z,17.37
2019-05-20T11:06:30.580Z,17.30
2019-05-20T11:08:56.428Z,17.49
2019-05-20T11:11:22.271Z,17.60
2019-05-20T11:13:48.133Z,17.76
2019-05-20T11:16:13.964Z,18.18
2019-05-20T11:18:39.829Z,18.19
2019-05-20T11:21:05.666Z,18.14
2019-05-20T11:23:31.516Z,18.36
2019-05-20T11:25:57.450Z,18.28
2019-05-20T11:28:23.289Z,17.62
2019-05-20T11:30:49.135Z,17.81
2019-05-20T11:33:14.962Z,17.56
2019-05-20T11:35:40.893Z,17.74
2019-05-20T11:38:06.768Z,17.43
2019-05-20T11:40:32.711Z,17.55
2019-05-20T11:42:58.530Z,17.24
2019-05-20T11:45:24.365Z,16.95
2019-05-20T11:47:50.307Z,17.13
2019-05-20T11:50:16.280Z,16.91
2019-05-20T11:52:42.096Z,17.01
2019-05-20T11:55:08.275Z,16.71
2019-05-20T11:57:34.078Z,16.78
2019-05-20T11:59:59.919Z,16.73
2019-05-20T12:02:25.760Z,16.68
2019-05-20T12:04:51.855Z,16.76
2019-05-20T12:07:17.712Z,16.82
2019-05-20T12:09:49.783Z,16.74
2019-05-20T12:12:11.374Z,16.54
2019-05-20T12:14:37.215Z,16.62
2019-05-20T12:17:03.197Z,16.60
2019-05-20T12:19:29.032Z,16.51
2019-05-20T12:21:54.905Z,16.54
2019-05-20T12:24:20.744Z,16.52
2019-05-20T12:26:46.612Z,16.64
2019-05-20T12:29:12.439Z,16.63
2019-05-20T12:31:38.275Z,16.56
2019-05-20T12:34:04.148Z,16.82
2019-05-20T12:36:30.010Z,16.60
2019-05-20T12:38:55.886Z,16.66
2019-05-20T12:41:21.785Z,16.39
2019-05-20T12:43:47.693Z,16.54
2019-05-20T12:46:13.520Z,16.50
2019-05-20T12:48:39.515Z,16.58
2019-05-20T12:51:05.398Z,16.60
2019-05-20T12:53:31.233Z,16.55
2019-05-20T12:55:57.109Z,16.52
2019-05-20T12:58:22.991Z,16.49
2019-05-20T13:00:49.318Z,16.35
2019-05-20T13:03:15.178Z,16.51
2019-05-20T13:05:41.111Z,16.31
2019-05-20T13:08:06.987Z,16.60
2019-05-20T13:10:32.956Z,16.74
2019-05-20T13:12:58.837Z,16.83
2019-05-20T13:15:24.676Z,16.97
2019-05-20T13:17:50.541Z,17.08
2019-05-20T13:20:16.515Z,17.12
2019-05-20T13:22:42.808Z,17.02
2019-05-20T13:25:08.653Z,16.68
2019-05-20T13:27:34.522Z,16.58
2019-05-20T13:30:00.473Z,16.59
2019-05-20T13:32:26.342Z,16.52
2019-05-20T13:34:52.227Z,16.46
2019-05-20T13:37:18.057Z,16.51
2019-05-20T13:39:43.936Z,16.63
2019-05-20T13:42:09.883Z,16.61
2019-05-20T13:44:35.744Z,16.66
2019-05-20T13:47:01.644Z,16.68
2019-05-20T13:49:27.687Z,16.64
2019-05-20T13:51:53.502Z,16.87
2019-05-20T13:54:19.406Z,16.96
2019-05-20T13:56:45.351Z,16.80
2019-05-20T13:59:11.193Z,16.89
2019-05-20T14:01:37.067Z,16.91
2019-05-20T14:04:03.000Z,16.86
2019-05-20T14:06:28.961Z,16.81
2019-05-20T14:08:54.813Z,16.69
2019-05-20T14:11:33.859Z,16.84
2019-05-20T14:13:48.440Z,16.99
2019-05-20T14:16:14.308Z,16.98
2019-05-20T14:18:40.166Z,17.18
2019-05-20T14:21:06.203Z,16.96
2019-05-20T14:23:32.074Z,17.01
2019-05-20T14:25:57.934Z,16.97
2019-05-20T14:28:23.825Z,16.94
2019-05-20T14:30:49.743Z,17.00
2019-05-20T14:33:15.639Z,16.81
2019-05-20T14:35:41.492Z,16.82
2019-05-20T14:38:07.348Z,16.62
2019-05-20T14:40:33.182Z,16.77
2019-05-20T14:42:59.131Z,17.01
2019-05-20T14:45:24.923Z,17.00
2019-05-20T14:47:50.797Z,16.97
2019-05-20T14:50:16.773Z,16.88
2019-05-20T14:52:42.664Z,16.81
2019-05-20T14:55:08.994Z,16.98
2019-05-20T14:57:34.912Z,16.92
2019-05-20T15:00:00.906Z,16.77
2019-05-20T15:02:30.753Z,16.77
2019-05-20T15:04:54.545Z,16.82
2019-05-20T15:07:30.282Z,16.78
2019-05-20T15:09:48.810Z,16.86
2019-05-20T15:12:14.644Z,16.80
2019-05-20T15:14:42.525Z,16.80
2019-05-20T15:17:08.249Z,16.83
2019-05-20T15:19:34.108Z,16.77
2019-05-20T15:22:00.410Z,16.81
2019-05-20T15:24:26.320Z,16.67
2019-05-20T15:26:52.310Z,16.93
2019-05-20T15:29:27.701Z,16.75
2019-05-20T15:31:46.036Z,16.62
2019-05-20T15:34:11.881Z,16.70
2019-05-20T15:36:37.737Z,16.73
2019-05-20T15:39:05.069Z,16.73
2019-05-20T15:41:30.969Z,16.92
2019-05-20T15:43:56.851Z,17.11
2019-05-20T15:46:22.704Z,16.98
2019-05-20T15:48:48.559Z,16.76
2019-05-20T15:51:14.500Z,16.64
2019-05-20T15:53:40.351Z,16.88
2019-05-20T15:56:06.194Z,16.70
2019-05-20T15:58:32.283Z,16.96
2019-05-20T16:00:58.107Z,16.89
2019-05-20T16:03:23.973Z,16.91
2019-05-20T16:05:53.159Z,16.98
2019-05-20T16:08:19.104Z,16.79
2019-05-20T16:10:44.958Z,16.77
2019-05-20T16:13:11.239Z,16.68
2019-05-20T16:15:37.098Z,17.11
2019-05-20T16:18:03.321Z,17.07
2019-05-20T16:20:30.012Z,17.12
2019-05-20T16:22:55.945Z,17.04
2019-05-20T16:25:21.795Z,16.77
2019-05-20T16:27:47.647Z,16.68
2019-05-20T16:30:13.596Z,16.39
2019-05-20T16:32:39.736Z,16.35
2019-05-20T16:35:05.862Z,16.38
2019-05-20T16:37:31.812Z,16.42
2019-05-20T16:39:57.887Z,16.48
2019-05-20T16:42:23.834Z,16.47
2019-05-20T16:44:49.728Z,16.41
2019-05-20T16:47:15.728Z,16.35
2019-05-20T16:49:41.545Z,16.13
2019-05-20T16:52:07.562Z,16.31
2019-05-20T16:54:33.530Z,16.28
2019-05-20T16:56:59.418Z,16.40
2019-05-20T16:59:25.329Z,16.38
2019-05-20T17:01:51.313Z,16.39
2019-05-20T17:04:17.504Z,16.30
2019-05-20T17:09:31.848Z,15.93
2019-05-20T17:12:08.569Z,15.62
2019-05-20T17:14:34.435Z,15.48
2019-05-20T17:17:00.278Z,15.48
2019-05-20T17:19:26.161Z,15.55
2019-05-20T17:21:52.022Z,15.73
2019-05-20T17:24:17.927Z,15.83
2019-05-20T17:26:58.897Z,15.99
2019-05-20T17:29:24.927Z,16.13
2019-05-20T17:31:50.779Z,15.99
2019-05-20T17:34:16.722Z,15.72
2019-05-20T17:36:42.655Z,15.65
2019-05-20T17:39:08.616Z,15.85
2019-05-20T17:41:34.493Z,15.56
2019-05-20T17:44:00.362Z,15.32
2019-05-20T17:46:26.203Z,15.36
2019-05-20T17:48:52.067Z,15.35
2019-05-20T17:51:17.918Z,15.35
2019-05-20T17:53:43.771Z,15.24
2019-05-20T17:56:09.735Z,15.17
2019-05-20T17:58:37.417Z,15.05
2019-05-20T18:01:14.966Z,14.97
2019-05-20T18:03:31.413Z,14.84
2019-05-20T18:05:57.279Z,14.89
2019-05-20T18:08:25.110Z,14.31
2019-05-20T18:10:50.937Z,14.11
2019-05-20T18:13:16.820Z,14.07
2019-05-20T18:15:42.667Z,14.33
2019-05-20T18:18:08.486Z,14.32
2019-05-20T18:20:34.837Z,14.19
2019-05-20T18:23:00.740Z,14.17
2019-05-20T18:25:26.602Z,14.35
2019-05-20T18:27:52.468Z,14.61
2019-05-20T18:30:19.682Z,14.61
2019-05-20T18:32:45.543Z,14.88
2019-05-20T18:35:11.631Z,14.81
2019-05-20T18:37:37.480Z,14.53
2019-05-20T18:40:13.348Z,14.27
2019-05-20T18:42:32.334Z,14.17
2019-05-20T18:44:58.200Z,14.01
2019-05-20T18:47:24.058Z,13.88
2019-05-20T18:49:49.909Z,13.84
2019-05-20T18:52:15.739Z,13.83
2019-05-20T18:54:41.601Z,13.85
2019-05-20T18:57:07.649Z,13.66
2019-05-20T18:59:33.496Z,13.66
2019-05-20T19:02:04.971Z,13.84
2019-05-20T19:04:27.490Z,13.78
2019-05-20T19:06:53.481Z,13.52
2019-05-20T19:09:19.414Z,13.53
2019-05-20T19:11:45.318Z,13.69
2019-05-20T19:14:11.178Z,13.72
2019-05-20T19:16:37.164Z,13.54
2019-05-20T19:19:03.121Z,13.52
2019-05-20T19:21:29.112Z,13.53
2019-05-20T19:23:55.014Z,13.60
2019-05-20T19:26:25.077Z,13.63
2019-05-20T19:28:48.704Z,13.66
2019-05-20T19:31:14.590Z,13.44
2019-05-20T19:33:40.471Z,13.40
2019-05-20T19:36:06.316Z,13.42
2019-05-20T19:38:34.928Z,13.42
2019-05-20T19:40:59.991Z,13.42
2019-05-20T19:43:26.647Z,13.40
2019-05-20T19:45:52.526Z,13.49
2019-05-20T19:48:18.542Z,13.33
2019-05-20T19:50:44.420Z,13.38
2019-05-20T19:53:10.335Z,13.33
2019-05-20T19:55:36.207Z,13.31
2019-05-20T19:58:02.208Z,13.23
2019-05-20T20:00:28.206Z,13.19
2019-05-20T20:02:54.178Z,13.24
2019-05-20T20:05:20.041Z,13.24
2019-05-20T20:07:45.900Z,13.30
2019-05-20T20:10:11.835Z,13.31
2019-05-20T20:12:37.704Z,13.22
2019-05-20T20:15:06.851Z,13.25
2019-05-20T20:17:32.704Z,13.29
2019-05-20T20:19:58.661Z,13.23
2019-05-20T20:22:24.635Z,13.22
2019-05-20T20:24:50.501Z,13.24
2019-05-20T20:27:16.462Z,13.21
2019-05-20T20:29:42.290Z,13.24
2019-05-20T20:32:08.234Z,13.20
2019-05-20T20:34:34.091Z,13.22
2019-05-20T20:36:59.952Z,13.24
2019-05-20T20:39:25.813Z,13.17
2019-05-20T20:41:51.660Z,13.30
2019-05-20T20:44:17.506Z,13.38
2019-05-20T20:46:43.355Z,13.42
2019-05-20T20:49:09.286Z,13.37
2019-05-20T20:51:35.189Z,13.47
2019-05-20T20:54:01.018Z,13.37
2019-05-20T20:56:27.049Z,13.40
2019-05-20T20:58:52.927Z,13.30
2019-05-20T21:01:18.765Z,13.40
2019-05-20T21:03:44.635Z,13.50
2019-05-20T21:06:10.574Z,13.50
2019-05-20T21:08:36.449Z,13.43
2019-05-20T21:11:02.296Z,13.30
2019-05-20T21:13:28.130Z,13.47
2019-05-20T21:15:53.981Z,13.58
2019-05-20T21:18:19.833Z,13.48
2019-05-20T21:20:45.694Z,13.47
2019-05-20T21:23:11.557Z,13.37
2019-05-20T21:25:37.397Z,13.29
2019-05-20T21:28:03.243Z,13.33
2019-05-20T21:30:29.084Z,13.14
2019-05-20T21:33:08.333Z,13.27
2019-05-20T21:35:22.741Z,13.09
2019-05-20T21:37:48.576Z,13.08
2019-05-20T21:40:14.538Z,13.10
2019-05-20T21:42:40.384Z,13.22
2019-05-20T21:45:06.443Z,13.13
2019-05-20T21:47:32.289Z,13.11
2019-05-20T21:49:58.146Z,13.03
2019-05-20T21:52:24.111Z,13.00
2019-05-20T21:54:50.255Z,13.01
2019-05-20T21:57:16.380Z,13.03
2019-05-20T21:59:42.185Z,13.10
2019-05-20T22:02:08.149Z,13.03
2019-05-20T22:04:34.004Z,13.16
2019-05-20T22:06:59.848Z,13.00
2019-05-20T22:09:25.696Z,13.09
2019-05-20T22:11:51.567Z,13.00
2019-05-20T22:14:17.386Z,13.02
2019-05-20T22:16:43.434Z,13.10
2019-05-20T22:19:09.291Z,13.11
2019-05-20T22:21:37.038Z,13.00
2019-05-20T22:24:07.312Z,13.02
2019-05-20T22:26:33.165Z,13.11
2019-05-20T22:28:59.019Z,13.17
2019-05-20T22:32:02.377Z,13.26
2019-05-20T22:34:28.222Z,13.24
2019-05-20T22:36:54.055Z,13.41
2019-05-20T22:39:19.913Z,13.39
2019-05-20T22:41:45.752Z,13.42
2019-05-20T22:44:11.636Z,13.50
2019-05-20T22:46:37.479Z,13.40
2019-05-20T22:49:03.317Z,13.50
2019-05-20T22:51:29.274Z,13.40
2019-05-20T22:53:55.097Z,13.43
2019-05-20T22:56:20.943Z,13.36
2019-05-20T22:58:46.777Z,13.31
2019-05-20T23:01:12.625Z,13.42
2019-05-20T23:03:38.471Z,13.53
2019-05-20T23:06:04.389Z,13.51
2019-05-20T23:08:30.264Z,13.70
2019-05-20T23:10:56.097Z,13.71
2019-05-20T23:13:21.950Z,13.66
2019-05-20T23:15:47.795Z,13.70
2019-05-20T23:18:13.647Z,13.51
2019-05-20T23:20:39.479Z,13.53
2019-05-20T23:23:05.345Z,13.51
2019-05-20T23:25:31.242Z,13.46
2019-05-20T23:27:57.083Z,13.57
2019-05-20T23:30:22.919Z,13.61
2019-05-20T23:32:48.803Z,13.55
2019-05-20T23:35:14.639Z,13.53
2019-05-20T23:37:40.517Z,13.46
2019-05-20T23:40:06.461Z,13.43
2019-05-20T23:42:32.383Z,13.56
2019-05-20T23:44:58.221Z,13.69
2019-05-20T23:47:24.023Z,13.75
2019-05-20T23:49:49.829Z,13.69
2019-05-20T23:52:15.637Z,13.76
2019-05-20T23:54:41.446Z,13.68
2019-05-20T23:57:07.297Z,13.52
2019-05-20T23:59:33.079Z,13.52
